Fort Steele, Canada
Current Conditions -  °F | °C
As of 3:00 AM on Friday 31 Oct 2014 (Local Time) from CYXC Reporting Station
Overcast Overcast  
Wind Chill: 39°   Ceiling: 14000
Heat Index: 39°   Visibility: 25mi
Dew Point: 37°   Wind: 3mph
Humidity: 93%   Direction: 200°SSW
Pressure: 29.88"   Gusts: NA
Location:  49.62°N, 115.63°W
Report Text: CYXC 310900Z 20003KT 25SM SCT065 OVC140 04/03 A2988 RMK SC3AC5 SLP137
Loading
Personal Weather Stations






























Interactive Weather Map
Tropical Storm Tracking
New forecast layout! Learn more

10-Day Weather Forecast

Advertisements
Track Severe Weather on mobile